sensor_id;sensor_type;location;lat;lon;timestamp;pressure;altitude;pressure_sealevel;temperature;humidity
39887;BME280;25559;44.738;20.980;2022-09-03T00:01:11;100786.97;;;18.97;nan
39887;BME280;25559;44.738;20.980;2022-09-03T00:03:48;100785.28;;;18.96;nan
39887;BME280;25559;44.738;20.980;2022-09-03T00:06:23;100798.44;;;18.96;nan
39887;BME280;25559;44.738;20.980;2022-09-03T00:11:23;100796.56;;;18.98;nan
39887;BME280;25559;44.738;20.980;2022-09-03T00:16:23;100792.44;;;18.93;nan
39887;BME280;25559;44.738;20.980;2022-09-03T00:18:59;100804.50;;;18.97;nan
39887;BME280;25559;44.738;20.980;2022-09-03T00:21:37;100801.19;;;18.93;nan
39887;BME280;25559;44.738;20.980;2022-09-03T00:24:06;100805.72;;;18.90;nan
39887;BME280;25559;44.738;20.980;2022-09-03T00:26:34;100805.34;;;18.97;nan
39887;BME280;25559;44.738;20.980;2022-09-03T00:29:08;100807.06;;;18.98;nan
39887;BME280;25559;44.738;20.980;2022-09-03T00:31:44;100810.41;;;19.02;nan
39887;BME280;25559;44.738;20.980;2022-09-03T00:34:34;100813.91;;;19.03;nan
39887;BME280;25559;44.738;20.980;2022-09-03T00:37:03;100809.56;;;19.02;nan
39887;BME280;25559;44.738;20.980;2022-09-03T00:39:29;100805.94;;;19.04;nan
39887;BME280;25559;44.738;20.980;2022-09-03T00:47:23;100807.63;;;19.05;nan
39887;BME280;25559;44.738;20.980;2022-09-03T00:53:30;100797.13;;;19.05;nan
39887;BME280;25559;44.738;20.980;2022-09-03T00:56:03;100798.91;;;19.05;nan
39887;BME280;25559;44.738;20.980;2022-09-03T00:58:48;100799.75;;;19.05;nan
39887;BME280;25559;44.738;20.980;2022-09-03T01:02:00;100799.81;;;19.04;nan
39887;BME280;25559;44.738;20.980;2022-09-03T01:04:34;100813.91;;;19.03;nan
39887;BME280;25559;44.738;20.980;2022-09-03T01:10:03;100801.69;;;19.02;nan
39887;BME280;25559;44.738;20.980;2022-09-03T01:15:52;100810.47;;;19.00;nan
39887;BME280;25559;44.738;20.980;2022-09-03T01:18:40;100819.22;;;19.01;nan
39887;BME280;25559;44.738;20.980;2022-09-03T01:29:39;100824.53;;;18.99;nan
39887;BME280;25559;44.738;20.980;2022-09-03T01:35:10;100826.38;;;18.97;nan
39887;BME280;25559;44.738;20.980;2022-09-03T01:43:08;100819.50;;;18.95;nan
39887;BME280;25559;44.738;20.980;2022-09-03T01:48:26;100823.13;;;18.92;nan
39887;BME280;25559;44.738;20.980;2022-09-03T01:53:59;100831.00;;;18.92;nan
39887;BME280;25559;44.738;20.980;2022-09-03T01:59:12;100833.84;;;18.88;nan
39887;BME280;25559;44.738;20.980;2022-09-03T02:01:58;100834.59;;;18.90;nan
39887;BME280;25559;44.738;20.980;2022-09-03T02:04:26;100838.06;;;18.90;nan
39887;BME280;25559;44.738;20.980;2022-09-03T02:06:55;100831.97;;;18.90;nan
39887;BME280;25559;44.738;20.980;2022-09-03T02:09:22;100834.47;;;18.93;nan
39887;BME280;25559;44.738;20.980;2022-09-03T02:12:18;100830.25;;;18.89;nan
39887;BME280;25559;44.738;20.980;2022-09-03T02:14:45;100833.63;;;18.92;nan
39887;BME280;25559;44.738;20.980;2022-09-03T02:17:11;100833.63;;;18.92;nan
39887;BME280;25559;44.738;20.980;2022-09-03T02:19:37;100836.16;;;18.94;nan
39887;BME280;25559;44.738;20.980;2022-09-03T02:22:04;100838.88;;;18.92;nan
39887;BME280;25559;44.738;20.980;2022-09-03T02:24:30;100831.91;;;18.91;nan
39887;BME280;25559;44.738;20.980;2022-09-03T02:26:55;100828.44;;;18.91;nan
39887;BME280;25559;44.738;20.980;2022-09-03T02:29:21;100832.81;;;18.90;nan
39887;BME280;25559;44.738;20.980;2022-09-03T02:31:48;100833.84;;;18.88;nan
39887;BME280;25559;44.738;20.980;2022-09-03T02:34:13;100835.44;;;18.90;nan
39887;BME280;25559;44.738;20.980;2022-09-03T02:36:42;100838.06;;;18.90;nan
39887;BME280;25559;44.738;20.980;2022-09-03T02:39:10;100835.50;;;18.89;nan
39887;BME280;25559;44.738;20.980;2022-09-03T02:41:38;100836.38;;;18.89;nan
39887;BME280;25559;44.738;20.980;2022-09-03T02:46:36;100849.44;;;18.91;nan
39887;BME280;25559;44.738;20.980;2022-09-03T02:49:03;100840.75;;;18.89;nan
39887;BME280;25559;44.738;20.980;2022-09-03T02:51:40;100833.94;;;18.85;nan
39887;BME280;25559;44.738;20.980;2022-09-03T02:54:07;100833.91;;;18.86;nan
39887;BME280;25559;44.738;20.980;2022-09-03T02:56:33;100838.28;;;18.86;nan
39887;BME280;25559;44.738;20.980;2022-09-03T02:58:59;100837.28;;;18.88;nan
39887;BME280;25559;44.738;20.980;2022-09-03T03:01:25;100834.66;;;18.88;nan
39887;BME280;25559;44.738;20.980;2022-09-03T03:03:51;100839.00;;;18.89;nan
39887;BME280;25559;44.738;20.980;2022-09-03T03:06:18;100835.59;;;18.87;nan
39887;BME280;25559;44.738;20.980;2022-09-03T03:08:47;100830.34;;;18.87;nan
39887;BME280;25559;44.738;20.980;2022-09-03T03:11:13;100831.19;;;18.88;nan
39887;BME280;25559;44.738;20.980;2022-09-03T03:13:43;100831.97;;;18.90;nan
39887;BME280;25559;44.738;20.980;2022-09-03T03:16:10;100833.69;;;18.91;nan
39887;BME280;25559;44.738;20.980;2022-09-03T03:18:36;100826.66;;;18.91;nan
39887;BME280;25559;44.738;20.980;2022-09-03T03:21:06;100825.00;;;18.89;nan
39887;BME280;25559;44.738;20.980;2022-09-03T03:23:33;100820.63;;;18.89;nan
39887;BME280;25559;44.738;20.980;2022-09-03T03:26:04;100825.06;;;18.87;nan
39887;BME280;25559;44.738;20.980;2022-09-03T03:28:30;100833.91;;;18.86;nan
39887;BME280;25559;44.738;20.980;2022-09-03T03:31:05;100826.97;;;18.83;nan
39887;BME280;25559;44.738;20.980;2022-09-03T03:33:32;100827.72;;;18.87;nan
39887;BME280;25559;44.738;20.980;2022-09-03T03:35:58;100825.06;;;18.87;nan
39887;BME280;25559;44.738;20.980;2022-09-03T03:38:23;100825.94;;;18.88;nan
39887;BME280;25559;44.738;20.980;2022-09-03T03:40:49;100832.03;;;18.88;nan
39887;BME280;25559;44.738;20.980;2022-09-03T03:43:14;100837.22;;;18.90;nan
39887;BME280;25559;44.738;20.980;2022-09-03T03:45:40;100830.19;;;18.90;nan
39887;BME280;25559;44.738;20.980;2022-09-03T03:48:05;100830.19;;;18.90;nan
39887;BME280;25559;44.738;20.980;2022-09-03T03:50:31;100835.41;;;18.92;nan
39887;BME280;25559;44.738;20.980;2022-09-03T03:52:59;100836.31;;;18.91;nan
39887;BME280;25559;44.738;20.980;2022-09-03T03:55:25;100838.88;;;18.92;nan
39887;BME280;25559;44.738;20.980;2022-09-03T03:57:51;100832.81;;;18.90;nan
39887;BME280;25559;44.738;20.980;2022-09-03T04:00:16;100835.50;;;18.89;nan
39887;BME280;25559;44.738;20.980;2022-09-03T04:02:42;100845.16;;;18.88;nan
39887;BME280;25559;44.738;20.980;2022-09-03T04:05:08;100856.50;;;18.89;nan
39887;BME280;25559;44.738;20.980;2022-09-03T04:07:34;100853.19;;;18.85;nan
39887;BME280;25559;44.738;20.980;2022-09-03T04:09:59;100866.25;;;18.87;nan
39887;BME280;25559;44.738;20.980;2022-09-03T04:12:26;100852.22;;;18.88;nan
39887;BME280;25559;44.738;20.980;2022-09-03T04:14:51;100861.78;;;18.89;nan
39887;BME280;25559;44.738;20.980;2022-09-03T04:17:17;100858.16;;;18.91;nan
39887;BME280;25559;44.738;20.980;2022-09-03T04:19:43;100852.84;;;18.93;nan
39887;BME280;25559;44.738;20.980;2022-09-03T04:22:09;100845.03;;;18.91;nan
39887;BME280;25559;44.738;20.980;2022-09-03T04:24:34;100850.22;;;18.93;nan
39887;BME280;25559;44.738;20.980;2022-09-03T04:27:00;100836.16;;;18.94;nan
39887;BME280;25559;44.738;20.980;2022-09-03T04:29:25;100838.72;;;18.95;nan
39887;BME280;25559;44.738;20.980;2022-09-03T04:31:55;100843.06;;;18.96;nan
39887;BME280;25559;44.738;20.980;2022-09-03T04:34:39;100830.25;;;18.89;nan
39887;BME280;25559;44.738;20.980;2022-09-03T04:37:04;100845.69;;;18.96;nan
39887;BME280;25559;44.738;20.980;2022-09-03T04:39:30;100851.72;;;18.98;nan
39887;BME280;25559;44.738;20.980;2022-09-03T04:41:55;100847.31;;;18.99;nan
39887;BME280;25559;44.738;20.980;2022-09-03T04:44:21;100847.31;;;18.99;nan
39887;BME280;25559;44.738;20.980;2022-09-03T04:46:47;100850.72;;;19.01;nan
39887;BME280;25559;44.738;20.980;2022-09-03T04:49:12;100859.38;;;19.03;nan
39887;BME280;25559;44.738;20.980;2022-09-03T04:51:39;100860.16;;;19.05;nan
39887;BME280;25559;44.738;20.980;2022-09-03T04:54:04;100856.53;;;19.08;nan
39887;BME280;25559;44.738;20.980;2022-09-03T04:56:32;100860.81;;;19.10;nan
39887;BME280;25559;44.738;20.980;2022-09-03T04:59:00;100858.03;;;19.13;nan
39887;BME280;25559;44.738;20.980;2022-09-03T05:01:28;100861.44;;;19.15;nan
39887;BME280;25559;44.738;20.980;2022-09-03T05:03:55;100860.38;;;19.20;nan
39887;BME280;25559;44.738;20.980;2022-09-03T05:06:20;100868.13;;;19.23;nan
39887;BME280;25559;44.738;20.980;2022-09-03T05:08:50;100867.97;;;19.26;nan
39887;BME280;25559;44.738;20.980;2022-09-03T05:11:17;100863.41;;;19.29;nan
39887;BME280;25559;44.738;20.980;2022-09-03T05:13:50;100865.91;;;19.32;nan
39887;BME280;25559;44.738;20.980;2022-09-03T05:16:17;100860.41;;;19.37;nan
39887;BME280;25559;44.738;20.980;2022-09-03T05:18:43;100856.66;;;19.43;nan
39887;BME280;25559;44.738;20.980;2022-09-03T05:21:14;100850.34;;;19.47;nan
39887;BME280;25559;44.738;20.980;2022-09-03T05:23:42;100850.34;;;19.47;nan
39887;BME280;25559;44.738;20.980;2022-09-03T05:26:11;100850.97;;;19.52;nan
39887;BME280;25559;44.738;20.980;2022-09-03T05:28:39;100854.56;;;19.49;nan
39887;BME280;25559;44.738;20.980;2022-09-03T05:31:12;100858.00;;;19.51;nan
39887;BME280;25559;44.738;20.980;2022-09-03T05:33:40;100857.09;;;19.52;nan
39887;BME280;25559;44.738;20.980;2022-09-03T05:36:09;100856.78;;;19.59;nan
39887;BME280;25559;44.738;20.980;2022-09-03T05:38:35;100866.22;;;19.63;nan
39887;BME280;25559;44.738;20.980;2022-09-03T05:41:03;100861.44;;;19.71;nan
39887;BME280;25559;44.738;20.980;2022-09-03T05:43:29;100866.28;;;19.80;nan
39887;BME280;25559;44.738;20.980;2022-09-03T05:46:03;100860.56;;;19.90;nan
39887;BME280;25559;44.738;20.980;2022-09-03T05:48:30;100857.47;;;19.99;nan
39887;BME280;25559;44.738;20.980;2022-09-03T05:51:02;100859.88;;;20.03;nan
39887;BME280;25559;44.738;20.980;2022-09-03T05:53:28;100860.19;;;20.15;nan
39887;BME280;25559;44.738;20.980;2022-09-03T05:55:59;100857.78;;;20.28;nan
39887;BME280;25559;44.738;20.980;2022-09-03T05:58:29;100867.44;;;20.45;nan
39887;BME280;25559;44.738;20.980;2022-09-03T06:00:55;100868.59;;;20.56;nan
39887;BME280;25559;44.738;20.980;2022-09-03T06:03:22;100871.53;;;20.68;nan
39887;BME280;25559;44.738;20.980;2022-09-03T06:05:51;100871.81;;;20.79;nan
39887;BME280;25559;44.738;20.980;2022-09-03T06:08:17;100863.19;;;20.93;nan
39887;BME280;25559;44.738;20.980;2022-09-03T06:10:43;100882.56;;;21.08;nan
39887;BME280;25559;44.738;20.980;2022-09-03T06:13:09;100880.91;;;21.23;nan
39887;BME280;25559;44.738;20.980;2022-09-03T06:15:34;100868.41;;;21.42;nan
39887;BME280;25559;44.738;20.980;2022-09-03T06:18:00;100870.78;;;21.63;nan
39887;BME280;25559;44.738;20.980;2022-09-03T06:20:25;100877.09;;;21.91;nan
39887;BME280;25559;44.738;20.980;2022-09-03T06:22:54;100884.00;;;22.24;nan
39887;BME280;25559;44.738;20.980;2022-09-03T06:25:20;100875.97;;;22.56;nan
39887;BME280;25559;44.738;20.980;2022-09-03T06:27:45;100875.88;;;23.00;nan
39887;BME280;25559;44.738;20.980;2022-09-03T06:30:12;100877.03;;;23.52;nan
39887;BME280;25559;44.738;20.980;2022-09-03T06:32:48;100866.81;;;24.01;nan
39887;BME280;25559;44.738;20.980;2022-09-03T06:35:18;100869.19;;;24.31;nan
39887;BME280;25559;44.738;20.980;2022-09-03T06:37:44;100874.81;;;24.78;nan
39887;BME280;25559;44.738;20.980;2022-09-03T06:40:10;100871.13;;;25.30;nan
39887;BME280;25559;44.738;20.980;2022-09-03T06:42:56;100863.53;;;25.98;nan
39887;BME280;25559;44.738;20.980;2022-09-03T06:45:26;100873.81;;;26.72;nan
39887;BME280;25559;44.738;20.980;2022-09-03T06:47:53;100868.78;;;27.36;nan
39887;BME280;25559;44.738;20.980;2022-09-03T06:50:19;100868.59;;;27.92;nan
39887;BME280;25559;44.738;20.980;2022-09-03T06:52:50;100871.06;;;28.26;nan
39887;BME280;25559;44.738;20.980;2022-09-03T06:55:17;100876.59;;;28.34;nan
39887;BME280;25559;44.738;20.980;2022-09-03T06:57:43;100872.50;;;28.30;nan
39887;BME280;25559;44.738;20.980;2022-09-03T07:00:09;100871.91;;;28.27;nan
39887;BME280;25559;44.738;20.980;2022-09-03T07:02:34;100880.91;;;28.26;nan
39887;BME280;25559;44.738;20.980;2022-09-03T07:05:00;100883.16;;;28.30;nan
39887;BME280;25559;44.738;20.980;2022-09-03T07:07:25;100873.13;;;28.44;nan
39887;BME280;25559;44.738;20.980;2022-09-03T07:09:51;100884.06;;;28.62;nan
39887;BME280;25559;44.738;20.980;2022-09-03T07:12:17;100884.13;;;28.71;nan
39887;BME280;25559;44.738;20.980;2022-09-03T07:14:46;100879.59;;;28.62;nan
39887;BME280;25559;44.738;20.980;2022-09-03T07:17:11;100879.44;;;28.64;nan
39887;BME280;25559;44.738;20.980;2022-09-03T07:19:37;100883.38;;;28.48;nan
39887;BME280;25559;44.738;20.980;2022-09-03T07:22:02;100873.31;;;28.21;nan
39887;BME280;25559;44.738;20.980;2022-09-03T07:24:28;100889.63;;;27.95;nan
39887;BME280;25559;44.738;20.980;2022-09-03T07:26:53;100890.56;;;27.73;nan
39887;BME280;25559;44.738;20.980;2022-09-03T07:29:20;100894.69;;;27.77;nan
39887;BME280;25559;44.738;20.980;2022-09-03T07:31:46;100903.75;;;27.75;nan
39887;BME280;25559;44.738;20.980;2022-09-03T07:34:12;100905.59;;;27.63;nan
39887;BME280;25559;44.738;20.980;2022-09-03T07:36:42;100902.63;;;27.45;nan
39887;BME280;25559;44.738;20.980;2022-09-03T07:39:09;100894.75;;;27.98;nan
39887;BME280;25559;44.738;20.980;2022-09-03T07:41:35;100900.16;;;28.39;nan
39887;BME280;25559;44.738;20.980;2022-09-03T07:44:02;100906.69;;;28.25;nan
39887;BME280;25559;44.738;20.980;2022-09-03T07:46:31;100907.28;;;29.82;nan
39887;BME280;25559;44.738;20.980;2022-09-03T07:48:59;100900.03;;;30.88;nan
39887;BME280;25559;44.738;20.980;2022-09-03T07:51:30;100897.09;;;32.80;nan
39887;BME280;25559;44.738;20.980;2022-09-03T07:53:58;100902.22;;;34.41;nan
39887;BME280;25559;44.738;20.980;2022-09-03T07:56:25;100907.72;;;35.43;nan
39887;BME280;25559;44.738;20.980;2022-09-03T07:58:52;100909.56;;;34.55;nan
39887;BME280;25559;44.738;20.980;2022-09-03T08:01:21;100905.91;;;33.57;nan
39887;BME280;25559;44.738;20.980;2022-09-03T08:03:49;100909.66;;;32.79;nan
39887;BME280;25559;44.738;20.980;2022-09-03T08:06:20;100916.31;;;31.78;nan
39887;BME280;25559;44.738;20.980;2022-09-03T08:08:47;100913.69;;;30.95;nan
39887;BME280;25559;44.738;20.980;2022-09-03T08:11:15;100929.50;;;30.31;nan
39887;BME280;25559;44.738;20.980;2022-09-03T08:13:43;100920.47;;;29.73;nan
39887;BME280;25559;44.738;20.980;2022-09-03T08:16:11;100922.59;;;29.19;nan
39887;BME280;25559;44.738;20.980;2022-09-03T08:18:37;100917.13;;;28.80;nan
39887;BME280;25559;44.738;20.980;2022-09-03T08:21:05;100916.41;;;28.57;nan
39887;BME280;25559;44.738;20.980;2022-09-03T08:23:38;100917.94;;;28.29;nan
39887;BME280;25559;44.738;20.980;2022-09-03T08:26:05;100912.25;;;28.01;nan
39887;BME280;25559;44.738;20.980;2022-09-03T08:28:32;100917.00;;;27.97;nan
39887;BME280;25559;44.738;20.980;2022-09-03T08:31:25;100919.81;;;27.84;nan
39887;BME280;25559;44.738;20.980;2022-09-03T08:33:53;100917.38;;;27.49;nan
39887;BME280;25559;44.738;20.980;2022-09-03T08:36:22;100915.34;;;27.19;nan
39887;BME280;25559;44.738;20.980;2022-09-03T08:38:50;100908.34;;;26.95;nan
39887;BME280;25559;44.738;20.980;2022-09-03T08:41:40;100909.81;;;26.76;nan
39887;BME280;25559;44.738;20.980;2022-09-03T08:44:38;100908.19;;;26.63;nan
39887;BME280;25559;44.738;20.980;2022-09-03T08:52:46;100916.06;;;26.64;nan
39887;BME280;25559;44.738;20.980;2022-09-03T08:57:50;100910.53;;;27.12;nan
39887;BME280;25559;44.738;20.980;2022-09-03T09:00:18;100906.53;;;28.48;nan
39887;BME280;25559;44.738;20.980;2022-09-03T09:08:36;100914.50;;;28.38;nan
39887;BME280;25559;44.738;20.980;2022-09-03T09:14:12;100917.00;;;27.54;nan
39887;BME280;25559;44.738;20.980;2022-09-03T09:19:45;100926.47;;;26.67;nan
39887;BME280;25559;44.738;20.980;2022-09-03T09:22:53;100926.97;;;26.26;nan
39887;BME280;25559;44.738;20.980;2022-09-03T09:25:22;100929.78;;;26.00;nan
39887;BME280;25559;44.738;20.980;2022-09-03T09:28:02;100936.34;;;25.70;nan
39887;BME280;25559;44.738;20.980;2022-09-03T09:30:29;100937.22;;;25.46;nan
39887;BME280;25559;44.738;20.980;2022-09-03T09:32:55;100926.63;;;25.21;nan
39887;BME280;25559;44.738;20.980;2022-09-03T09:35:21;100936.50;;;25.06;nan
39887;BME280;25559;44.738;20.980;2022-09-03T09:37:49;100945.53;;;24.90;nan
39887;BME280;25559;44.738;20.980;2022-09-03T09:40:34;100945.44;;;24.79;nan
39887;BME280;25559;44.738;20.980;2022-09-03T09:43:13;100949.97;;;24.64;nan
39887;BME280;25559;44.738;20.980;2022-09-03T09:45:48;100948.56;;;24.45;nan
39887;BME280;25559;44.738;20.980;2022-09-03T09:50:43;100947.13;;;24.67;nan
39887;BME280;25559;44.738;20.980;2022-09-03T09:53:10;100943.22;;;24.86;nan
39887;BME280;25559;44.738;20.980;2022-09-03T09:56:08;100952.75;;;24.88;nan
39887;BME280;25559;44.738;20.980;2022-09-03T09:58:44;100945.44;;;24.79;nan
39887;BME280;25559;44.738;20.980;2022-09-03T10:01:22;100947.66;;;24.72;nan
39887;BME280;25559;44.738;20.980;2022-09-03T10:04:07;100945.66;;;24.63;nan
39887;BME280;25559;44.738;20.980;2022-09-03T10:06:34;100951.34;;;24.57;nan
39887;BME280;25559;44.738;20.980;2022-09-03T10:09:22;100946.56;;;24.49;nan
39887;BME280;25559;44.738;20.980;2022-09-03T10:12:18;100948.75;;;24.42;nan
39887;BME280;25559;44.738;20.980;2022-09-03T10:20:09;100937.47;;;25.05;nan
39887;BME280;25559;44.738;20.980;2022-09-03T10:22:56;100931.59;;;25.25;nan
39887;BME280;25559;44.738;20.980;2022-09-03T10:25:28;100937.31;;;25.45;nan
39887;BME280;25559;44.738;20.980;2022-09-03T10:27:58;100937.31;;;25.45;nan
39887;BME280;25559;44.738;20.980;2022-09-03T10:30:27;100931.25;;;25.43;nan
39887;BME280;25559;44.738;20.980;2022-09-03T10:33:06;100918.97;;;25.42;nan
39887;BME280;25559;44.738;20.980;2022-09-03T10:35:42;100935.41;;;25.71;nan
39887;BME280;25559;44.738;20.980;2022-09-03T10:45:53;100935.13;;;26.11;nan
39887;BME280;25559;44.738;20.980;2022-09-03T11:07:16;100922.78;;;25.99;nan
39887;BME280;25559;44.738;20.980;2022-09-03T11:09:56;100935.09;;;26.00;nan
39887;BME280;25559;44.738;20.980;2022-09-03T11:12:31;100926.34;;;25.98;nan
39887;BME280;25559;44.738;20.980;2022-09-03T11:14:59;100932.31;;;26.01;nan
39887;BME280;25559;44.738;20.980;2022-09-03T11:17:36;100921.94;;;25.98;nan
39887;BME280;25559;44.738;20.980;2022-09-03T11:20:23;100930.50;;;26.02;nan
39887;BME280;25559;44.738;20.980;2022-09-03T11:22:50;100928.59;;;26.04;nan
39887;BME280;25559;44.738;20.980;2022-09-03T11:25:19;100933.03;;;26.03;nan
39887;BME280;25559;44.738;20.980;2022-09-03T11:30:22;100922.84;;;25.97;nan
39887;BME280;25559;44.738;20.980;2022-09-03T11:32:52;100918.22;;;25.88;nan
39887;BME280;25559;44.738;20.980;2022-09-03T11:40:32;100922.81;;;25.62;nan
39887;BME280;25559;44.738;20.980;2022-09-03T11:43:13;100923.59;;;25.51;nan
39887;BME280;25559;44.738;20.980;2022-09-03T11:48:45;100908.44;;;25.40;nan
39887;BME280;25559;44.738;20.980;2022-09-03T11:51:34;100903.25;;;25.39;nan
39887;BME280;25559;44.738;20.980;2022-09-03T11:56:29;100912.72;;;25.30;nan
39887;BME280;25559;44.738;20.980;2022-09-03T12:01:28;100911.44;;;25.35;nan
39887;BME280;25559;44.738;20.980;2022-09-03T12:04:05;100907.94;;;25.35;nan
39887;BME280;25559;44.738;20.980;2022-09-03T12:14:48;100894.44;;;25.38;nan
39887;BME280;25559;44.738;20.980;2022-09-03T12:20:37;100895.94;;;25.29;nan
39887;BME280;25559;44.738;20.980;2022-09-03T12:23:03;100893.09;;;25.19;nan
39887;BME280;25559;44.738;20.980;2022-09-03T12:25:28;100902.66;;;25.09;nan
39887;BME280;25559;44.738;20.980;2022-09-03T12:27:54;100900.56;;;25.01;nan
39887;BME280;25559;44.738;20.980;2022-09-03T12:30:23;100909.56;;;24.99;nan
39887;BME280;25559;44.738;20.980;2022-09-03T12:32:49;100909.16;;;24.92;nan
39887;BME280;25559;44.738;20.980;2022-09-03T12:35:21;100904.91;;;24.90;nan
39887;BME280;25559;44.738;20.980;2022-09-03T12:37:50;100910.53;;;24.85;nan
39887;BME280;25559;44.738;20.980;2022-09-03T12:40:17;100901.53;;;24.88;nan
39887;BME280;25559;44.738;20.980;2022-09-03T12:42:45;100897.72;;;24.92;nan
39887;BME280;25559;44.738;20.980;2022-09-03T12:45:11;100896.31;;;24.99;nan
39887;BME280;25559;44.738;20.980;2022-09-03T12:47:41;100899.28;;;25.07;nan
39887;BME280;25559;44.738;20.980;2022-09-03T12:50:12;100890.06;;;25.13;nan
39887;BME280;25559;44.738;20.980;2022-09-03T12:52:48;100886.31;;;25.15;nan
39887;BME280;25559;44.738;20.980;2022-09-03T13:00:38;100869.84;;;25.23;nan
39887;BME280;25559;44.738;20.980;2022-09-03T13:03:21;100871.03;;;25.19;nan
39887;BME280;25559;44.738;20.980;2022-09-03T13:05:53;100869.03;;;25.10;nan
39887;BME280;25559;44.738;20.980;2022-09-03T13:08:22;100850.72;;;24.94;nan
39887;BME280;25559;44.738;20.980;2022-09-03T13:10:52;100868.69;;;24.90;nan
39887;BME280;25559;44.738;20.980;2022-09-03T13:13:30;100871.97;;;24.81;nan
39887;BME280;25559;44.738;20.980;2022-09-03T13:21:28;100861.59;;;24.65;nan
39887;BME280;25559;44.738;20.980;2022-09-03T13:30:12;100857.75;;;24.56;nan
39887;BME280;25559;44.738;20.980;2022-09-03T13:35:52;100856.91;;;24.56;nan
39887;BME280;25559;44.738;20.980;2022-09-03T13:38:22;100859.56;;;24.56;nan
39887;BME280;25559;44.738;20.980;2022-09-03T13:40:59;100863.91;;;24.57;nan
39887;BME280;25559;44.738;20.980;2022-09-03T13:43:38;100860.38;;;24.56;nan
39887;BME280;25559;44.738;20.980;2022-09-03T13:46:17;100860.31;;;24.58;nan
39887;BME280;25559;44.738;20.980;2022-09-03T13:48:47;100856.19;;;24.67;nan
39887;BME280;25559;44.738;20.980;2022-09-03T13:51:51;100858.09;;;24.64;nan
39887;BME280;25559;44.738;20.980;2022-09-03T13:54:26;100851.00;;;24.65;nan
39887;BME280;25559;44.738;20.980;2022-09-03T13:57:06;100859.16;;;24.62;nan
39887;BME280;25559;44.738;20.980;2022-09-03T14:02:57;100852.44;;;24.56;nan
39887;BME280;25559;44.738;20.980;2022-09-03T14:16:52;100847.06;;;24.58;nan
39887;BME280;25559;44.738;20.980;2022-09-03T14:19:47;100856.63;;;24.60;nan
39887;BME280;25559;44.738;20.980;2022-09-03T14:22:21;100861.06;;;24.60;nan
39887;BME280;25559;44.738;20.980;2022-09-03T14:27:27;100847.19;;;24.69;nan
39887;BME280;25559;44.738;20.980;2022-09-03T14:30:02;100857.25;;;24.77;nan
39887;BME280;25559;44.738;20.980;2022-09-03T14:38:12;100843.66;;;24.81;nan
39887;BME280;25559;44.738;20.980;2022-09-03T14:40:45;100847.38;;;24.79;nan
39887;BME280;25559;44.738;20.980;2022-09-03T14:54:48;100849.06;;;24.67;nan
39887;BME280;25559;44.738;20.980;2022-09-03T15:00:46;100851.00;;;24.65;nan
39887;BME280;25559;44.738;20.980;2022-09-03T15:09:07;100855.56;;;24.63;nan
39887;BME280;25559;44.738;20.980;2022-09-03T15:11:47;100846.97;;;24.59;nan
39887;BME280;25559;44.738;20.980;2022-09-03T15:14:52;100849.59;;;24.59;nan
39887;BME280;25559;44.738;20.980;2022-09-03T15:28:14;100855.22;;;24.42;nan
39887;BME280;25559;44.738;20.980;2022-09-03T15:36:16;100849.47;;;24.35;nan
39887;BME280;25559;44.738;20.980;2022-09-03T15:38:47;100848.84;;;24.32;nan
39887;BME280;25559;44.738;20.980;2022-09-03T15:41:38;100848.97;;;24.30;nan
39887;BME280;25559;44.738;20.980;2022-09-03T15:44:14;100839.72;;;24.23;nan
39887;BME280;25559;44.738;20.980;2022-09-03T15:46:59;100858.25;;;24.23;nan
39887;BME280;25559;44.738;20.980;2022-09-03T15:57:57;100841.94;;;24.03;nan
39887;BME280;25559;44.738;20.980;2022-09-03T16:03:15;100838.13;;;23.94;nan
39887;BME280;25559;44.738;20.980;2022-09-03T16:05:53;100840.97;;;23.91;nan
39887;BME280;25559;44.738;20.980;2022-09-03T16:14:27;100843.94;;;23.87;nan
39887;BME280;25559;44.738;20.980;2022-09-03T16:30:11;100842.16;;;23.73;nan
39887;BME280;25559;44.738;20.980;2022-09-03T16:35:19;100837.38;;;23.65;nan
39887;BME280;25559;44.738;20.980;2022-09-03T16:40:33;100837.97;;;23.56;nan
39887;BME280;25559;44.738;20.980;2022-09-03T16:43:08;100837.66;;;23.48;nan
39887;BME280;25559;44.738;20.980;2022-09-03T16:45:51;100832.66;;;23.43;nan
39887;BME280;25559;44.738;20.980;2022-09-03T16:48:55;100837.56;;;23.35;nan
39887;BME280;25559;44.738;20.980;2022-09-03T16:52:11;100855.53;;;23.30;nan
39887;BME280;25559;44.738;20.980;2022-09-03T16:56:59;100856.25;;;23.19;nan
39887;BME280;25559;44.738;20.980;2022-09-03T17:02:45;100860.47;;;23.07;nan
39887;BME280;25559;44.738;20.980;2022-09-03T17:24:57;100876.72;;;22.58;nan
39887;BME280;25559;44.738;20.980;2022-09-03T17:30:38;100874.63;;;22.48;nan
39887;BME280;25559;44.738;20.980;2022-09-03T17:41:39;100884.47;;;22.30;nan
39887;BME280;25559;44.738;20.980;2022-09-03T17:49:07;100878.25;;;22.17;nan
39887;BME280;25559;44.738;20.980;2022-09-03T17:51:40;100886.72;;;22.22;nan
39887;BME280;25559;44.738;20.980;2022-09-03T17:59:52;100893.28;;;22.15;nan
39887;BME280;25559;44.738;20.980;2022-09-03T18:02:49;100900.47;;;22.13;nan
39887;BME280;25559;44.738;20.980;2022-09-03T18:05:33;100893.66;;;22.09;nan
39887;BME280;25559;44.738;20.980;2022-09-03T18:08:25;100897.34;;;22.06;nan
39887;BME280;25559;44.738;20.980;2022-09-03T18:11:13;100904.38;;;22.06;nan
39887;BME280;25559;44.738;20.980;2022-09-03T18:16:26;100892.47;;;21.98;nan
39887;BME280;25559;44.738;20.980;2022-09-03T18:21:43;100902.56;;;21.92;nan